Time;durP1;ratioP1;P1;durP2;ratioP2;P2;SDS_P1;SDS_P2;PMS_P1;PMS_P2;Temp;Humidity;BMP_temperature;BMP_pressure;BME280_temperature;BME280_humidity;BME280_pressure;Samples;Min_cycle;Max_cycle;Signal;HPM_P1;HPM_P2
2022/09/13 00:01:42;;;;;;;13.30;7.15;;;17.20;99.90;;;;;;5033188;28;20077;-72
2022/09/13 00:04:08;;;;;;;14.90;7.53;;;17.20;99.90;;;;;;5034502;28;20444;-69
2022/09/13 00:06:34;;;;;;;15.80;7.80;;;17.20;99.90;;;;;;5032492;28;20057;-73
2022/09/13 00:09:00;;;;;;;14.60;8.20;;;17.20;99.90;;;;;;5032787;28;20623;-68
2022/09/13 00:11:28;;;;;;;15.98;8.77;;;17.10;99.90;;;;;;5034413;28;20098;-71
2022/09/13 00:13:55;;;;;;;13.05;7.20;;;17.10;99.90;;;;;;5032659;28;20080;-73
2022/09/13 00:16:24;;;;;;;16.65;7.88;;;17.00;99.90;;;;;;5032776;28;20045;-73
2022/09/13 00:18:50;;;;;;;15.60;8.05;;;17.10;99.90;;;;;;5033961;28;20053;-72
2022/09/13 00:21:18;;;;;;;15.48;7.50;;;17.00;99.90;;;;;;5032914;28;20053;-75
2022/09/13 00:23:46;;;;;;;15.73;8.27;;;17.00;99.90;;;;;;5032790;28;20037;-74
2022/09/13 00:26:14;;;;;;;16.48;8.95;;;16.90;99.90;;;;;;5033984;28;20041;-76
2022/09/13 00:28:40;;;;;;;13.77;7.05;;;16.90;99.90;;;;;;5034260;28;20073;-77
2022/09/13 00:31:08;;;;;;;16.02;8.88;;;16.90;99.90;;;;;;5032678;28;20080;-77
2022/09/13 00:33:34;;;;;;;16.98;8.18;;;16.90;99.90;;;;;;5032567;28;20045;-76
2022/09/13 00:36:05;;;;;;;15.95;8.98;;;16.90;99.90;;;;;;5033695;28;20119;-77
2022/09/13 00:38:31;;;;;;;17.02;8.98;;;16.90;99.90;;;;;;5033719;28;20053;-77
2022/09/13 00:40:57;;;;;;;14.27;7.60;;;16.90;99.90;;;;;;5032067;28;20132;-77
2022/09/13 00:43:50;;;;;;;14.18;7.05;;;16.90;99.90;;;;;;5032508;28;20096;-77
2022/09/13 00:46:22;;;;;;;11.77;6.47;;;16.90;99.90;;;;;;5032470;28;20099;-77
2022/09/13 00:48:51;;;;;;;11.77;6.43;;;16.90;99.90;;;;;;5032222;28;20091;-76
2022/09/13 00:51:17;;;;;;;11.93;6.18;;;16.90;99.90;;;;;;5032332;28;20045;-77
2022/09/13 00:53:50;;;;;;;11.25;5.88;;;16.90;99.90;;;;;;5032512;28;20123;-75
2022/09/13 00:56:32;;;;;;;11.52;5.22;;;16.90;99.90;;;;;;5031787;28;20103;-77
2022/09/13 00:59:03;;;;;;;11.82;5.82;;;17.00;99.90;;;;;;5032155;28;20092;-77
2022/09/13 01:01:36;;;;;;;11.82;6.13;;;16.90;99.90;;;;;;5032383;28;20115;-78
2022/09/13 01:04:02;;;;;;;12.15;6.57;;;17.00;99.90;;;;;;5031875;28;20049;-78
2022/09/13 01:06:32;;;;;;;13.70;6.63;;;17.00;99.90;;;;;;5031992;28;20096;-78
2022/09/13 01:09:03;;;;;;;15.68;7.53;;;17.00;99.90;;;;;;5031692;28;20052;-77
2022/09/13 01:12:03;;;;;;;12.50;6.18;;;17.00;99.90;;;;;;5033147;28;20065;-74
2022/09/13 01:14:30;;;;;;;12.70;6.78;;;17.00;99.90;;;;;;5032944;28;20084;-78
2022/09/13 01:16:55;;;;;;;12.73;6.55;;;17.00;99.90;;;;;;5031102;28;20049;-75
2022/09/13 01:19:21;;;;;;;13.07;6.55;;;16.90;99.90;;;;;;5033159;28;20057;-78
2022/09/13 01:22:08;;;;;;;16.30;7.28;;;16.90;99.90;;;;;;5031354;28;20053;-75
2022/09/13 01:24:53;;;;;;;12.65;6.47;;;16.80;99.90;;;;;;5032989;28;20477;-77
2022/09/13 01:27:39;;;;;;;12.52;5.65;;;16.90;99.90;;;;;;5031707;28;20064;-76
2022/09/13 01:30:14;;;;;;;13.38;6.60;;;16.80;99.90;;;;;;5031658;28;20049;-76
2022/09/13 01:33:08;;;;;;;13.35;6.85;;;16.80;99.90;;;;;;5033104;28;20124;-78
2022/09/13 01:35:46;;;;;;;12.32;6.28;;;16.80;99.90;;;;;;5033079;28;20056;-75
2022/09/13 01:38:40;;;;;;;11.95;6.38;;;16.80;99.90;;;;;;5032945;28;20053;-74
2022/09/13 01:41:23;;;;;;;11.80;5.95;;;16.80;99.90;;;;;;5031430;28;20129;-76
2022/09/13 01:44:02;;;;;;;13.82;6.22;;;16.80;99.90;;;;;;5032869;28;20060;-74
2022/09/13 01:46:40;;;;;;;11.57;6.25;;;16.80;99.90;;;;;;5032314;28;20489;-73
2022/09/13 01:49:27;;;;;;;10.70;5.38;;;16.80;99.90;;;;;;5031370;28;20049;-78
2022/09/13 01:52:15;;;;;;;10.13;4.72;;;16.80;99.90;;;;;;5031389;28;20049;-74
2022/09/13 01:55:08;;;;;;;10.02;5.40;;;16.80;99.90;;;;;;5031682;28;20045;-77
2022/09/13 01:57:50;;;;;;;10.57;4.50;;;16.80;99.90;;;;;;5032242;28;20050;-70
2022/09/13 02:00:17;;;;;;;8.57;4.18;;;16.80;99.90;;;;;;5031137;28;20061;-72
2022/09/13 02:03:08;;;;;;;9.65;4.03;;;16.80;99.90;;;;;;5031565;28;20045;-72
2022/09/13 02:05:56;;;;;;;8.50;3.95;;;16.80;99.90;;;;;;5032569;28;20136;-73
2022/09/13 02:08:26;;;;;;;10.60;4.35;;;16.80;99.90;;;;;;5031657;28;20046;-72
2022/09/13 02:11:09;;;;;;;10.07;4.47;;;16.70;99.90;;;;;;5031200;28;20153;-74
2022/09/13 02:13:39;;;;;;;11.10;4.40;;;16.80;99.90;;;;;;5031037;28;20132;-72
2022/09/13 02:16:11;;;;;;;12.88;4.47;;;16.80;99.90;;;;;;5032481;28;20053;-73
2022/09/13 02:18:42;;;;;;;11.02;4.45;;;16.80;99.90;;;;;;5032261;28;20401;-72
2022/09/13 02:21:24;;;;;;;9.77;4.35;;;16.80;99.90;;;;;;5032303;28;20212;-71
2022/09/13 02:24:00;;;;;;;9.45;4.57;;;16.80;99.90;;;;;;5032725;28;20370;-72
2022/09/13 02:26:27;;;;;;;9.75;4.32;;;16.80;99.90;;;;;;5032518;28;20056;-73
2022/09/13 02:28:57;;;;;;;9.50;5.20;;;16.80;99.90;;;;;;5034672;28;20466;-69
2022/09/13 02:31:35;;;;;;;12.27;5.03;;;16.80;99.90;;;;;;5036328;28;20140;-73
2022/09/13 02:34:06;;;;;;;12.88;5.53;;;16.70;99.90;;;;;;5035168;28;20053;-72
2022/09/13 02:36:39;;;;;;;9.90;5.03;;;16.70;99.90;;;;;;5034729;28;20560;-72
2022/09/13 02:39:12;;;;;;;11.52;5.10;;;16.80;99.90;;;;;;5036276;28;20042;-71
2022/09/13 02:42:15;;;;;;;9.73;4.60;;;16.70;99.90;;;;;;5036132;28;20064;-72
2022/09/13 02:44:48;;;;;;;9.80;5.00;;;16.70;99.90;;;;;;5034535;28;20049;-69
2022/09/13 02:47:48;;;;;;;9.75;5.38;;;16.70;99.90;;;;;;5036067;28;20045;-73
2022/09/13 02:50:22;;;;;;;12.63;5.57;;;16.70;99.90;;;;;;5034926;28;20049;-71
2022/09/13 02:53:02;;;;;;;10.93;5.88;;;16.70;99.90;;;;;;5034423;28;20049;-72
2022/09/13 02:55:36;;;;;;;11.65;5.93;;;16.80;99.90;;;;;;5034158;28;20045;-72
2022/09/13 02:58:16;;;;;;;11.40;6.00;;;16.70;99.90;;;;;;5017862;28;20061;-73
2022/09/13 03:00:44;;;;;;;13.23;6.35;;;16.70;99.90;;;;;;5035435;28;20060;-75
2022/09/13 03:03:13;;;;;;;12.10;6.40;;;16.70;99.90;;;;;;5036154;28;20045;-72
2022/09/13 03:05:39;;;;;;;12.98;6.63;;;16.70;99.90;;;;;;5034237;28;20041;-70
2022/09/13 03:08:06;;;;;;;11.73;5.80;;;16.70;99.90;;;;;;5034251;28;20053;-72
2022/09/13 03:11:17;;;;;;;12.60;6.72;;;16.60;99.90;;;;;;5034121;28;20060;-74
2022/09/13 03:14:04;;;;;;;12.50;6.57;;;16.60;99.90;;;;;;5035734;28;20404;-73
2022/09/13 03:16:42;;;;;;;14.07;6.50;;;16.60;99.90;;;;;;5035173;28;20045;-70
2022/09/13 03:19:33;;;;;;;16.88;8.57;;;16.60;99.90;;;;;;5035533;28;20111;-72
2022/09/13 03:22:16;;;;;;;14.38;7.55;;;16.70;99.90;;;;;;5007020;28;20054;-72
2022/09/13 03:25:15;;;;;;;14.82;7.50;;;16.70;99.90;;;;;;5034046;28;20107;-74
2022/09/13 03:28:25;;;;;;;16.55;8.43;;;16.70;99.90;;;;;;4977461;28;20066;-75
2022/09/13 03:31:15;;;;;;;16.65;7.45;;;16.70;99.90;;;;;;4977038;28;20129;-72
2022/09/13 03:33:54;;;;;;;15.75;7.78;;;16.70;99.90;;;;;;4993522;28;20093;-77
2022/09/13 03:36:32;;;;;;;16.45;8.60;;;16.60;99.90;;;;;;4961049;28;20506;-74
2022/09/13 03:39:13;;;;;;;18.08;9.35;;;16.60;99.90;;;;;;4976680;28;20097;-76
2022/09/13 03:41:46;;;;;;;17.10;9.13;;;16.70;99.90;;;;;;4977122;28;20108;-78
2022/09/13 03:44:12;;;;;;;;;;;16.70;99.90;;;;;;4993775;28;20116;-71
2022/09/13 03:46:45;;;;;;;16.85;8.77;;;16.80;99.90;;;;;;4992963;28;19994;-71
2022/09/13 03:49:17;;;;;;;20.02;9.10;;;16.70;99.90;;;;;;4977053;28;20050;-71
2022/09/13 03:51:48;;;;;;;18.50;9.25;;;16.70;99.90;;;;;;4993136;28;20133;-72
2022/09/13 03:54:23;;;;;;;19.50;9.82;;;16.70;99.90;;;;;;4976904;28;20206;-71
2022/09/13 03:57:14;;;;;;;19.80;10.13;;;16.80;99.90;;;;;;4992886;28;20132;-73
2022/09/13 03:59:46;;;;;;;20.58;10.85;;;16.80;99.90;;;;;;4919232;29;20059;-71
2022/09/13 04:02:12;;;;;;;20.23;10.38;;;16.80;99.90;;;;;;4918947;29;20151;-72
2022/09/13 04:04:40;;;;;;;19.60;10.65;;;16.80;99.90;;;;;;4950992;28;20058;-72
2022/09/13 04:07:06;;;;;;;20.42;11.10;;;16.80;99.90;;;;;;4976858;28;20046;-75
2022/09/13 04:09:32;;;;;;;22.10;11.60;;;16.80;99.90;;;;;;4992883;28;20534;-72
2022/09/13 04:11:57;;;;;;;17.58;10.07;;;16.90;99.90;;;;;;4992787;28;20061;-73
2022/09/13 04:14:25;;;;;;;24.52;11.55;;;16.70;99.90;;;;;;4960593;28;20068;-77
2022/09/13 04:16:52;;;;;;;23.20;12.18;;;16.80;99.90;;;;;;4992167;28;20054;-74
2022/09/13 04:19:18;;;;;;;20.80;11.73;;;16.80;99.90;;;;;;4992404;28;20509;-74
2022/09/13 04:21:45;;;;;;;25.58;12.27;;;16.80;99.90;;;;;;4976684;28;20046;-77
2022/09/13 04:24:12;;;;;;;22.35;11.60;;;16.80;99.90;;;;;;4992694;28;20082;-71
2022/09/13 04:26:37;;;;;;;23.15;11.45;;;16.80;99.90;;;;;;4992631;28;20050;-76
2022/09/13 04:29:03;;;;;;;20.45;11.45;;;16.90;99.90;;;;;;4992361;28;20145;-76
2022/09/13 04:31:29;;;;;;;19.67;10.35;;;16.90;99.90;;;;;;4992398;28;20057;-78
2022/09/13 04:33:54;;;;;;;19.50;10.07;;;16.90;99.90;;;;;;4975690;28;20125;-73
2022/09/13 04:36:20;;;;;;;19.77;9.90;;;16.80;99.90;;;;;;5008493;28;20089;-71
2022/09/13 04:38:46;;;;;;;19.05;10.65;;;16.90;99.90;;;;;;5032804;28;20046;-77
2022/09/13 04:41:12;;;;;;;20.33;10.10;;;16.80;99.90;;;;;;5033705;28;20528;-71
2022/09/13 04:43:38;;;;;;;19.95;10.68;;;16.90;99.90;;;;;;5015912;28;20124;-73
2022/09/13 04:46:04;;;;;;;19.33;9.80;;;16.80;99.90;;;;;;5033644;28;20120;-72
2022/09/13 04:48:29;;;;;;;22.08;10.43;;;16.90;99.90;;;;;;5033405;28;20041;-71
2022/09/13 04:51:03;;;;;;;18.75;10.50;;;16.90;99.90;;;;;;5032729;28;20057;-72
2022/09/13 04:53:30;;;;;;;19.02;9.00;;;16.90;99.90;;;;;;5033567;28;20049;-71
2022/09/13 04:56:05;;;;;;;18.67;9.73;;;16.90;99.90;;;;;;5033654;28;20214;-71
2022/09/13 04:58:31;;;;;;;19.13;9.05;;;16.90;99.90;;;;;;5033269;28;20053;-70
2022/09/13 05:01:05;;;;;;;13.80;6.93;;;16.90;99.90;;;;;;5033624;28;20037;-72
2022/09/13 05:03:32;;;;;;;12.07;6.00;;;16.90;99.90;;;;;;5032817;28;20057;-72
2022/09/13 05:06:05;;;;;;;12.13;5.78;;;16.90;99.90;;;;;;5033253;28;20053;-71
2022/09/13 05:08:31;;;;;;;11.52;5.25;;;16.80;99.90;;;;;;5015600;28;20052;-71
2022/09/13 05:10:57;;;;;;;12.50;5.10;;;16.80;99.90;;;;;;5032045;28;20397;-70
2022/09/13 05:13:27;;;;;;;14.63;5.50;;;16.80;99.90;;;;;;5033468;28;20409;-71
2022/09/13 05:16:01;;;;;;;11.48;5.47;;;16.80;99.90;;;;;;5031811;28;20053;-71
2022/09/13 05:18:32;;;;;;;12.38;6.05;;;16.80;99.90;;;;;;5031549;28;20062;-72
2022/09/13 05:21:00;;;;;;;14.30;6.82;;;16.90;99.90;;;;;;5031419;28;20061;-70
2022/09/13 05:23:27;;;;;;;14.40;7.13;;;16.90;99.90;;;;;;5031661;28;20057;-71
2022/09/13 05:26:02;;;;;;;13.95;6.82;;;16.90;99.90;;;;;;5033279;28;20120;-75
2022/09/13 05:28:29;;;;;;;15.30;7.95;;;16.90;99.90;;;;;;5031490;28;20060;-70
2022/09/13 05:30:57;;;;;;;15.15;8.60;;;16.90;99.90;;;;;;5031636;28;20057;-73
2022/09/13 05:33:28;;;;;;;16.15;7.93;;;16.90;99.90;;;;;;5033074;28;20033;-73
2022/09/13 05:35:54;;;;;;;15.77;7.53;;;17.00;99.90;;;;;;5032331;28;20493;-68
2022/09/13 05:38:20;;;;;;;15.40;7.63;;;17.00;99.90;;;;;;5031742;28;20045;-72
2022/09/13 05:40:46;;;;;;;15.43;7.38;;;17.00;99.90;;;;;;5030731;28;20049;-73
2022/09/13 05:43:12;;;;;;;16.63;8.25;;;17.00;99.90;;;;;;5032807;28;20052;-71
2022/09/13 05:45:38;;;;;;;16.23;8.45;;;17.00;99.90;;;;;;5032885;28;20404;-72
2022/09/13 05:48:03;;;;;;;16.13;7.50;;;16.90;99.90;;;;;;5031276;28;20128;-69
2022/09/13 05:50:29;;;;;;;13.25;7.18;;;16.90;99.90;;;;;;5032253;28;20443;-69
2022/09/13 05:52:55;;;;;;;13.40;6.70;;;16.90;99.90;;;;;;5014779;28;20092;-76
2022/09/13 05:55:22;;;;;;;13.20;7.03;;;17.00;99.90;;;;;;5032221;28;20129;-71
2022/09/13 05:57:48;;;;;;;13.80;6.72;;;17.00;99.90;;;;;;5031651;28;20572;-70
2022/09/13 06:00:15;;;;;;;15.32;7.63;;;17.00;99.90;;;;;;5031719;28;20037;-70
2022/09/13 06:02:41;;;;;;;13.25;6.57;;;17.10;99.90;;;;;;5035215;28;20091;-73
2022/09/13 06:05:10;;;;;;;13.77;6.40;;;17.10;99.90;;;;;;5035672;28;20045;-76
2022/09/13 06:07:40;;;;;;;13.93;6.63;;;17.10;99.90;;;;;;5036126;28;20045;-73
2022/09/13 06:10:07;;;;;;;14.18;5.95;;;17.10;99.90;;;;;;5036750;28;20042;-73
2022/09/13 06:12:32;;;;;;;14.27;6.05;;;17.10;99.90;;;;;;5035361;28;20081;-72
2022/09/13 06:14:58;;;;;;;11.75;5.35;;;17.10;99.90;;;;;;5034977;28;20084;-70
2022/09/13 06:17:24;;;;;;;11.45;5.38;;;17.10;99.90;;;;;;5018623;28;20081;-71
2022/09/13 06:19:50;;;;;;;12.48;5.22;;;17.10;99.90;;;;;;5035037;28;20077;-72
2022/09/13 06:22:15;;;;;;;10.50;4.65;;;17.10;99.90;;;;;;5036006;28;20083;-72
2022/09/13 06:24:41;;;;;;;9.40;4.53;;;17.10;99.90;;;;;;5034657;28;20053;-73
2022/09/13 06:27:09;;;;;;;8.48;3.67;;;17.10;99.90;;;;;;5036309;28;20064;-72
2022/09/13 06:29:35;;;;;;;10.65;3.97;;;17.10;99.90;;;;;;5034959;28;20041;-72
2022/09/13 06:32:01;;;;;;;9.43;3.35;;;17.00;99.90;;;;;;5034825;28;20061;-73
2022/09/13 06:34:27;;;;;;;8.35;2.95;;;17.10;99.90;;;;;;5034950;28;20481;-70
2022/09/13 06:36:52;;;;;;;9.13;3.03;;;17.10;99.90;;;;;;5034387;28;20056;-73
2022/09/13 06:39:18;;;;;;;6.95;2.60;;;17.00;99.90;;;;;;5035744;28;20042;-71
2022/09/13 06:41:44;;;;;;;8.10;2.42;;;17.00;99.90;;;;;;5036233;28;20052;-73
2022/09/13 06:44:09;;;;;;;10.57;2.83;;;17.00;99.90;;;;;;5034857;28;20038;-77
2022/09/13 06:46:35;;;;;;;9.05;2.40;;;17.00;99.90;;;;;;5035940;28;20045;-76
2022/09/13 06:49:03;;;;;;;7.13;2.20;;;17.00;99.90;;;;;;5034553;28;20052;-78
2022/09/13 06:51:29;;;;;;;7.15;1.85;;;17.00;99.90;;;;;;5030845;28;20037;-75
2022/09/13 06:53:56;;;;;;;4.75;1.80;;;17.00;99.90;;;;;;5032170;28;20128;-76
2022/09/13 06:56:27;;;;;;;9.52;1.95;;;17.10;99.90;;;;;;5031389;28;20061;-76
2022/09/13 06:58:56;;;;;;;6.43;1.90;;;17.10;99.90;;;;;;5033752;28;20063;-76
2022/09/13 07:01:37;;;;;;;6.15;2.00;;;17.10;99.90;;;;;;5034446;28;20404;-77
2022/09/13 07:04:08;;;;;;;9.80;1.90;;;17.20;99.90;;;;;;5029847;28;20084;-78
2022/09/13 07:06:39;;;;;;;5.85;2.10;;;17.30;99.90;;;;;;5029206;28;20037;-74
2022/09/13 07:09:08;;;;;;;5.75;1.80;;;17.20;99.90;;;;;;5023042;28;20382;-77
2022/09/13 07:11:37;;;;;;;4.75;1.80;;;17.40;99.90;;;;;;5026033;28;20061;-76
2022/09/13 07:14:03;;;;;;;8.07;2.05;;;17.40;99.90;;;;;;5026263;28;20041;-78
2022/09/13 07:16:30;;;;;;;8.50;2.15;;;17.50;99.90;;;;;;5033974;28;20049;-73
2022/09/13 07:19:04;;;;;;;9.43;2.40;;;17.40;99.90;;;;;;5032967;28;20429;-77
2022/09/13 07:21:30;;;;;;;6.72;1.83;;;17.50;99.90;;;;;;5033687;28;20038;-77
2022/09/13 07:23:56;;;;;;;5.32;1.60;;;17.50;99.90;;;;;;5014858;28;20096;-76
2022/09/13 07:26:23;;;;;;;7.43;1.80;;;17.40;99.90;;;;;;5032989;28;20124;-75
2022/09/13 07:28:52;;;;;;;9.15;2.33;;;17.60;99.90;;;;;;5033376;28;20041;-76
2022/09/13 07:31:25;;;;;;;5.90;2.13;;;17.60;99.90;;;;;;5033257;28;20081;-74
2022/09/13 07:33:56;;;;;;;8.73;2.10;;;17.70;99.90;;;;;;5033407;28;20041;-76
2022/09/13 07:36:22;;;;;;;7.43;2.00;;;17.80;99.90;;;;;;5032713;28;20045;-74
2022/09/13 07:38:51;;;;;;;5.70;1.70;;;17.80;99.90;;;;;;5031734;28;20049;-76
2022/09/13 07:41:19;;;;;;;6.28;1.73;;;17.90;99.90;;;;;;5032077;28;20095;-76
2022/09/13 07:43:45;;;;;;;7.20;2.90;;;17.90;99.90;;;;;;5033348;28;20091;-77
2022/09/13 07:46:19;;;;;;;6.75;2.10;;;17.90;99.90;;;;;;5031799;28;20049;-76
2022/09/13 07:48:45;;;;;;;5.75;1.50;;;18.00;99.90;;;;;;5015168;28;20052;-76
2022/09/13 07:51:17;;;;;;;6.53;1.70;;;18.00;99.90;;;;;;5033399;28;20033;-75
2022/09/13 07:53:44;;;;;;;7.00;1.50;;;18.00;99.90;;;;;;5015277;28;20077;-73
2022/09/13 07:56:21;;;;;;;5.65;1.30;;;18.00;99.90;;;;;;5033129;28;20397;-79
2022/09/13 07:58:49;;;;;;;4.78;1.48;;;18.20;99.90;;;;;;5029171;28;20476;-73
2022/09/13 08:01:24;;;;;;;8.05;1.73;;;18.40;99.90;;;;;;5033322;28;20095;-86
2022/09/13 08:03:54;;;;;;;5.72;1.42;;;18.40;99.90;;;;;;5035447;28;20123;-81
2022/09/13 08:06:20;;;;;;;5.07;1.40;;;18.40;99.90;;;;;;5032766;28;20041;-80
2022/09/13 08:09:36;;;;;;;11.57;1.52;;;18.50;99.90;;;;;;5032752;28;20087;-81
2022/09/13 08:12:02;;;;;;;4.07;1.08;;;18.50;99.90;;;;;;5007550;28;20061;-81
2022/09/13 08:14:27;;;;;;;4.93;1.25;;;18.40;99.90;;;;;;5032803;28;20095;-81
2022/09/13 08:16:56;;;;;;;6.00;1.13;;;18.50;99.90;;;;;;5032769;28;20056;-82
2022/09/13 08:19:22;;;;;;;7.05;1.40;;;18.40;99.90;;;;;;5032889;28;20054;-81
2022/09/13 08:21:47;;;;;;;6.95;1.40;;;18.50;99.90;;;;;;5032471;28;20046;-84
2022/09/13 08:24:22;;;;;;;8.35;1.67;;;18.40;99.90;;;;;;5032594;28;20133;-86
2022/09/13 08:27:03;;;;;;;3.38;1.08;;;18.30;99.90;;;;;;5031310;28;20045;-81
2022/09/13 08:29:29;;;;;;;6.65;1.00;;;18.40;99.90;;;;;;5032961;28;20045;-82
2022/09/13 08:31:55;;;;;;;5.15;1.20;;;18.50;99.90;;;;;;5031924;28;20455;-79
2022/09/13 08:34:21;;;;;;;5.93;1.50;;;18.70;99.90;;;;;;5032806;28;20120;-84
2022/09/13 08:36:46;;;;;;;4.88;1.00;;;18.70;99.90;;;;;;5031962;28;20505;-82
2022/09/13 08:39:12;;;;;;;7.95;1.40;;;18.90;99.90;;;;;;5031440;28;20124;-74
2022/09/13 08:41:41;;;;;;;5.68;1.00;;;18.90;99.90;;;;;;5032141;28;20111;-80
2022/09/13 08:44:25;;;;;;;4.88;0.95;;;19.00;99.90;;;;;;5031159;28;20504;-87
2022/09/13 08:47:03;;;;;;;2.13;0.68;;;19.10;99.90;;;;;;5030796;28;20053;-78
2022/09/13 08:53:09;;;;;;;6.47;1.10;;;19.00;99.90;;;;;;5027918;28;20036;-80
2022/09/13 08:55:53;;;;;;;4.28;0.82;;;19.00;99.90;;;;;;5030816;28;20049;-77
2022/09/13 08:58:34;;;;;;;4.32;0.77;;;19.00;99.90;;;;;;5028229;28;20136;-78
2022/09/13 09:01:08;;;;;;;3.60;0.90;;;19.10;99.90;;;;;;5032220;28;20107;-80
2022/09/13 09:04:00;;;;;;;5.22;1.00;;;19.30;99.90;;;;;;5013436;28;20053;-86
2022/09/13 09:06:27;;;;;;;3.80;1.23;;;19.30;99.90;;;;;;5031082;28;20045;-91
2022/09/13 09:09:06;;;;;;;4.05;0.85;;;19.40;99.90;;;;;;5030211;28;20435;-75
2022/09/13 09:11:46;;;;;;;3.83;1.20;;;19.50;99.90;;;;;;5031534;28;20099;-80
2022/09/13 09:14:30;;;;;;;6.40;1.05;;;19.50;99.90;;;;;;5029835;28;20060;-83
2022/09/13 09:17:01;;;;;;;4.07;0.98;;;19.50;99.90;;;;;;5028108;28;20088;-73
2022/09/13 09:19:36;;;;;;;6.40;1.20;;;19.80;99.90;;;;;;5031571;28;20536;-76
2022/09/13 09:22:23;;;;;;;8.85;1.13;;;20.00;99.90;;;;;;5031479;28;20513;-73
2022/09/13 09:24:55;;;;;;;4.90;0.93;;;20.10;99.90;;;;;;5026796;28;20071;-76
2022/09/13 09:27:22;;;;;;;3.83;0.90;;;20.00;99.90;;;;;;5027832;28;20037;-76
2022/09/13 09:29:53;;;;;;;5.05;1.20;;;19.70;99.90;;;;;;5030098;28;20057;-75
2022/09/13 09:32:31;;;;;;;4.43;1.00;;;19.50;99.90;;;;;;5027444;28;20044;-77
2022/09/13 09:35:26;;;;;;;5.57;0.90;;;19.40;99.90;;;;;;5028201;28;20072;-76
2022/09/13 09:38:30;;;;;;;8.50;1.15;;;19.20;99.90;;;;;;5028067;28;20120;-74
2022/09/13 09:41:04;;;;;;;4.82;1.02;;;19.10;99.90;;;;;;5028132;28;20049;-74
2022/09/13 09:43:51;;;;;;;3.88;0.85;;;19.10;99.90;;;;;;5030891;28;20050;-77
2022/09/13 09:46:27;;;;;;;4.10;0.88;;;19.30;99.90;;;;;;5031249;28;20103;-77
2022/09/13 09:50:07;;;;;;;3.38;1.05;;;19.40;99.90;;;;;;5029708;28;20500;-72
2022/09/13 09:52:00;;;;;;;3.90;1.02;;;19.60;99.90;;;;;;5028335;28;20124;-75
2022/09/13 09:54:29;;;;;;;4.65;0.93;;;19.80;99.90;;;;;;5028930;28;20053;-78
2022/09/13 09:56:55;;;;;;;4.18;0.90;;;20.10;99.90;;;;;;5027259;28;20504;-78
2022/09/13 09:59:31;;;;;;;8.82;0.90;;;20.40;99.90;;;;;;5022520;28;20040;-79
2022/09/13 10:02:03;;;;;;;7.05;0.88;;;20.70;99.90;;;;;;5010651;28;20128;-75
2022/09/13 10:04:29;;;;;;;3.78;0.80;;;20.60;99.90;;;;;;5026384;28;20041;-76
2022/09/13 10:07:28;;;;;;;2.75;0.65;;;20.40;99.90;;;;;;5025660;28;20520;-77
2022/09/13 10:10:21;;;;;;;1.00;0.55;;;20.20;99.90;;;;;;5028135;28;20504;-75
2022/09/13 10:12:54;;;;;;;7.50;1.00;;;19.90;99.90;;;;;;5029686;28;20038;-73
2022/09/13 10:15:24;;;;;;;6.28;0.80;;;19.90;99.90;;;;;;5028661;28;20045;-76
2022/09/13 10:18:16;;;;;;;7.07;0.93;;;19.90;99.90;;;;;;5028372;28;20062;-77
2022/09/13 10:20:59;;;;;;;5.10;0.95;;;20.00;99.90;;;;;;5030480;28;20168;-76
2022/09/13 10:23:26;;;;;;;4.20;0.90;;;20.30;99.90;;;;;;5031108;28;20057;-76
2022/09/13 10:26:15;;;;;;;5.07;0.95;;;20.60;99.90;;;;;;5029094;28;20046;-76
2022/09/13 10:29:12;;;;;;;3.33;0.80;;;20.90;99.90;;;;;;5030703;28;20509;-75
2022/09/13 10:31:46;;;;;;;3.72;0.63;;;21.40;99.90;;;;;;5025678;28;20061;-77
2022/09/13 10:34:19;;;;;;;3.53;0.73;;;21.60;99.90;;;;;;5030853;28;20042;-78
2022/09/13 10:37:13;;;;;;;3.65;1.00;;;21.70;99.90;;;;;;5029301;28;20056;-76
2022/09/13 10:40:00;;;;;;;3.97;0.77;;;21.80;99.90;;;;;;5026507;28;20037;-74
2022/09/13 10:42:30;;;;;;;3.58;0.80;;;21.70;99.90;;;;;;5020982;22;20059;-76
2022/09/13 10:45:00;;;;;;;2.20;0.82;;;21.80;99.90;;;;;;4957041;28;20109;-74
2022/09/13 10:47:43;;;;;;;4.60;0.75;;;22.00;99.90;;;;;;4961900;28;20054;-85
2022/09/13 10:50:22;;;;;;;4.63;0.85;;;22.20;99.90;;;;;;4962253;28;20098;-85
2022/09/13 10:52:51;;;;;;;5.70;0.80;;;22.40;99.90;;;;;;4966320;28;20050;-76
2022/09/13 10:55:17;;;;;;;3.55;0.80;;;22.40;99.90;;;;;;4960307;28;20058;-74
2022/09/13 10:57:44;;;;;;;7.68;0.88;;;22.20;99.90;;;;;;4965600;28;20055;-74
2022/09/13 11:00:21;;;;;;;4.35;0.90;;;22.10;99.90;;;;;;4958252;28;20051;-73
2022/09/13 11:03:06;;;;;;;3.05;0.90;;;21.90;99.90;;;;;;4962814;28;20499;-73
2022/09/13 11:06:01;;;;;;;4.90;0.82;;;21.90;99.90;;;;;;4965698;28;20053;-75
2022/09/13 11:08:43;;;;;;;2.33;0.75;;;22.00;99.90;;;;;;4935871;28;20056;-74
2022/09/13 11:11:15;;;;;;;3.10;0.80;;;22.10;99.90;;;;;;4938108;29;20504;-75
2022/09/13 11:14:07;;;;;;;5.95;0.82;;;22.30;99.90;;;;;;4934411;29;20059;-81
2022/09/13 11:16:37;;;;;;;4.55;0.88;;;22.40;99.90;;;;;;4933840;29;20047;-75
2022/09/13 11:19:20;;;;;;;4.35;0.88;;;22.60;99.90;;;;;;4935816;29;20381;-71
2022/09/13 11:22:16;;;;;;;5.57;0.75;;;22.60;99.90;;;;;;4920176;29;20047;-73
2022/09/13 11:25:08;;;;;;;7.13;0.95;;;22.40;99.90;;;;;;4929684;29;20054;-72
2022/09/13 11:27:42;;;;;;;3.50;0.88;;;22.20;99.90;;;;;;4935003;29;20047;-83
2022/09/13 11:30:23;;;;;;;4.80;1.15;;;22.10;99.90;;;;;;4918143;29;20530;-79
2022/09/13 11:33:16;;;;;;;4.95;0.73;;;21.90;99.90;;;;;;4933522;29;20523;-77
2022/09/13 11:35:42;;;;;;;3.85;0.90;;;22.00;99.90;;;;;;4934707;29;20056;-81
2022/09/13 11:38:25;;;;;;;3.53;0.60;;;22.00;99.90;;;;;;4918080;29;20070;-74
2022/09/13 11:41:02;;;;;;;5.63;0.98;;;22.00;99.90;;;;;;4937800;29;20462;-85
2022/09/13 11:44:00;;;;;;;5.63;0.88;;;22.10;99.90;;;;;;4915629;29;20063;-73
2022/09/13 11:46:45;;;;;;;4.22;0.73;;;22.30;99.90;;;;;;4985065;28;20046;-78
2022/09/13 11:49:35;;;;;;;5.20;0.80;;;22.40;99.90;;;;;;4943523;28;20086;-78
2022/09/13 11:52:39;;;;;;;3.75;0.80;;;22.30;99.90;;;;;;4961657;28;20047;-78
2022/09/13 11:55:17;;;;;;;5.78;0.95;;;22.40;99.90;;;;;;4956404;28;20584;-73
2022/09/13 11:57:54;;;;;;;3.90;0.75;;;22.70;99.90;;;;;;4956229;28;20574;-72
2022/09/13 12:00:24;;;;;;;3.55;0.85;;;22.80;99.90;;;;;;4970771;28;20054;-83
2022/09/13 12:03:25;;;;;;;5.82;0.70;;;22.60;99.90;;;;;;4956153;28;20082;-79
2022/09/13 12:05:58;;;;;;;2.22;0.63;;;22.10;99.90;;;;;;4874472;29;20048;-83
2022/09/13 12:08:26;;;;;;;2.65;0.60;;;21.90;99.90;;;;;;4884446;29;20148;-89
2022/09/13 12:10:55;;;;;;;3.15;0.68;;;22.00;99.90;;;;;;4889075;29;20056;-79
2022/09/13 12:13:25;;;;;;;2.05;0.63;;;22.20;99.90;;;;;;4903352;29;20080;-76
2022/09/13 12:15:55;;;;;;;5.20;0.95;;;22.30;99.90;;;;;;4905821;29;20094;-75
2022/09/13 12:18:45;;;;;;;3.20;0.70;;;22.20;99.90;;;;;;4886607;29;20123;-77
2022/09/13 12:21:14;;;;;;;3.53;0.60;;;22.30;99.90;;;;;;4900088;29;20273;-79
2022/09/13 12:23:51;;;;;;;4.82;0.73;;;22.40;99.90;;;;;;4904374;29;20057;-83
2022/09/13 12:26:35;;;;;;;4.43;1.25;;;22.50;99.90;;;;;;4888927;29;20048;-81
2022/09/13 12:29:11;;;;;;;4.18;0.70;;;22.50;99.90;;;;;;4890690;29;20068;-74
2022/09/13 12:31:37;;;;;;;2.58;0.60;;;22.40;99.90;;;;;;4909964;29;20056;-86
2022/09/13 12:34:08;;;;;;;4.45;0.80;;;22.40;99.90;;;;;;4889558;29;20060;-79
2022/09/13 12:37:01;;;;;;;3.67;0.85;;;22.30;99.90;;;;;;4894040;29;20092;-77
2022/09/13 12:39:43;;;;;;;4.25;0.70;;;22.30;99.90;;;;;;4897262;29;20067;-83
2022/09/13 12:42:32;;;;;;;4.63;0.73;;;22.20;99.90;;;;;;4922932;28;20140;-78
2022/09/13 12:45:16;;;;;;;4.30;0.80;;;22.20;99.90;;;;;;4946845;28;20105;-82
2022/09/13 12:48:10;;;;;;;4.95;0.80;;;22.10;99.90;;;;;;4954144;28;20054;-80
2022/09/13 12:51:18;;;;;;;6.65;0.90;;;22.10;99.90;;;;;;4937947;28;20054;-85
2022/09/13 12:54:08;;;;;;;2.55;0.70;;;22.20;99.90;;;;;;4962592;28;20073;-81
2022/09/13 12:56:46;;;;;;;4.05;0.70;;;22.30;99.90;;;;;;4970789;28;20050;-79
2022/09/13 12:59:19;;;;;;;3.30;0.88;;;22.40;99.90;;;;;;4951537;28;20101;-81
2022/09/13 13:01:48;;;;;;;2.83;0.55;;;22.40;99.90;;;;;;4962926;28;20419;-82
2022/09/13 13:04:27;;;;;;;4.65;0.70;;;22.40;99.90;;;;;;4951817;28;20514;-78
2022/09/13 13:06:57;;;;;;;4.93;0.80;;;22.20;99.90;;;;;;4945662;28;20051;-78
2022/09/13 13:09:44;;;;;;;2.97;0.60;;;22.00;99.90;;;;;;4948761;28;20132;-78
2022/09/13 13:12:35;;;;;;;4.88;0.80;;;21.80;99.90;;;;;;4948906;28;20407;-75
2022/09/13 13:15:50;;;;;;;5.55;1.10;;;21.80;99.90;;;;;;4968247;28;20279;-77
2022/09/13 13:18:43;;;;;;;5.43;0.80;;;21.80;99.90;;;;;;4875900;29;20143;-76
2022/09/13 13:21:30;;;;;;;3.80;0.70;;;22.00;99.90;;;;;;4890934;29;20052;-75
2022/09/13 13:24:23;;;;;;;3.78;0.70;;;22.00;99.90;;;;;;4915656;29;20127;-77
2022/09/13 13:27:36;;;;;;;4.18;0.73;;;22.20;99.90;;;;;;4881776;29;20098;-77